Time;durP1;ratioP1;P1;durP2;ratioP2;P2;SDS_P1;SDS_P2;PMS_P1;PMS_P2;Temp;Humidity;BMP_temperature;BMP_pressure;BME280_temperature;BME280_humidity;BME280_pressure;Samples;Min_cycle;Max_cycle;Signal;HPM_P1;HPM_P2
2022/09/08 00:01:25;;;;;;;;;;;;;;;24.27;52.05;99380.47;4477938;31;33458;-63
2022/09/08 00:03:53;;;;;;;;;;;;;;;24.36;52.07;99376.47;4469318;32;33866;-62
2022/09/08 00:06:21;;;;;;;;;;;;;;;24.27;52.30;99375.87;4477648;31;34845;-63
2022/09/08 00:08:51;;;;;;;;;;;;;;;24.28;52.01;99365.75;4480733;32;34797;-63
2022/09/08 00:11:19;;;;;;;;;;;;;;;24.05;52.75;99366.22;4482074;32;32789;-62
2022/09/08 00:13:47;;;;;;;;;;;;;;;24.28;52.06;99363.88;4462748;32;32627;-63
2022/09/08 00:16:18;;;;;;;;;;;;;;;24.30;52.08;99364.50;4468113;32;35473;-63
2022/09/08 00:18:47;;;;;;;;;;;;;;;24.13;52.35;99360.50;4471117;32;34231;-63
2022/09/08 00:21:14;;;;;;;;;;;;;;;24.05;52.33;99356.13;4481660;32;33171;-63
2022/09/08 00:23:42;;;;;;;;;;;;;;;23.98;52.68;99348.94;4477231;31;32971;-61
2022/09/08 00:26:09;;;;;;;;;;;;;;;24.06;52.45;99349.59;4482503;32;34751;-63
2022/09/08 00:28:37;;;;;;;;;;;;;;;24.04;52.55;99351.69;4477584;31;34751;-62
2022/09/08 00:31:04;;;;;;;;;;;;;;;24.04;52.37;99343.47;4477665;32;33664;-62
2022/09/08 00:33:32;;;;;;;;;;;;;;;24.17;51.99;99348.09;4476967;31;33581;-62
2022/09/08 00:36:03;;;;;;;;;;;;;;;24.15;52.07;99336.53;4476642;32;34070;-63
2022/09/08 00:38:31;;;;;;;;;;;;;;;24.06;52.21;99337.81;4477687;32;33668;-60
2022/09/08 00:40:58;;;;;;;;;;;;;;;24.12;52.02;99332.34;4480894;31;32243;-62
2022/09/08 00:43:31;;;;;;;;;;;;;;;24.14;51.84;99330.25;4474433;32;33331;-63
2022/09/08 00:46:03;;;;;;;;;;;;;;;24.23;51.64;99330.84;4481204;31;32841;-61
2022/09/08 00:48:30;;;;;;;;;;;;;;;24.21;51.82;99326.66;4465072;32;34204;-63
2022/09/08 00:50:58;;;;;;;;;;;;;;;24.29;51.77;99324.50;4464725;32;33178;-62
2022/09/08 00:53:26;;;;;;;;;;;;;;;24.28;51.53;99322.84;4473263;32;33958;-63
2022/09/08 00:55:54;;;;;;;;;;;;;;;24.38;51.24;99320.50;4481057;31;34259;-63
2022/09/08 00:58:21;;;;;;;;;;;;;;;24.42;51.47;99320.09;4479348;32;35494;-61
2022/09/08 01:00:48;;;;;;;;;;;;;;;24.28;51.99;99317.38;4480506;31;32188;-63
2022/09/08 01:03:16;;;;;;;;;;;;;;;24.42;51.39;99322.84;4470277;32;33271;-62
2022/09/08 01:05:57;;;;;;;;;;;;;;;24.41;51.45;99327.47;4466034;32;33076;-63
2022/09/08 01:14:09;;;;;;;;;;;;;;;24.37;51.63;99313.34;4476651;32;33880;-62
2022/09/08 01:16:40;;;;;;;;;;;;;;;24.45;51.15;99325.16;4476203;32;35176;-63
2022/09/08 01:19:08;;;;;;;;;;;;;;;24.41;51.15;99324.75;4472000;31;34813;-63
2022/09/08 01:21:43;;;;;;;;;;;;;;;24.31;51.61;99316.13;4464622;32;33240;-63
2022/09/08 01:24:17;;;;;;;;;;;;;;;24.35;51.34;99317.34;4474921;32;35202;-62
2022/09/08 01:26:59;;;;;;;;;;;;;;;24.30;51.62;99318.00;4482749;32;33126;-62
2022/09/08 01:29:26;;;;;;;;;;;;;;;24.34;51.68;99321.16;4482309;32;34114;-62
2022/09/08 01:31:54;;;;;;;;;;;;;;;24.26;52.01;99318.62;4483716;32;31651;-63
2022/09/08 01:34:21;;;;;;;;;;;;;;;24.21;52.16;99313.81;4473035;32;35354;-62
2022/09/08 01:36:48;;;;;;;;;;;;;;;24.25;51.99;99314.22;4480352;32;34083;-62
2022/09/08 01:39:16;;;;;;;;;;;;;;;24.32;51.48;99304.94;4479532;32;34166;-62
2022/09/08 01:41:43;;;;;;;;;;;;;;;24.32;51.48;99304.09;4474335;31;32244;-62
2022/09/08 01:44:10;;;;;;;;;;;;;;;24.30;51.42;99308.94;4473235;32;34904;-63
2022/09/08 01:46:38;;;;;;;;;;;;;;;24.18;51.68;99317.81;4481272;31;34288;-62
2022/09/08 01:49:05;;;;;;;;;;;;;;;24.21;51.66;99321.19;4481863;32;34360;-62
2022/09/08 01:51:33;;;;;;;;;;;;;;;24.24;51.65;99315.25;4480651;31;32171;-61
2022/09/08 01:54:00;;;;;;;;;;;;;;;24.21;51.73;99322.03;4477875;32;33224;-62
2022/09/08 01:56:28;;;;;;;;;;;;;;;24.16;52.00;99327.28;4476202;31;35456;-63
2022/09/08 01:58:55;;;;;;;;;;;;;;;24.07;52.00;99312.16;4479405;32;35355;-63
2022/09/08 02:01:22;;;;;;;;;;;;;;;23.97;52.16;99317.22;4480886;32;33381;-63
2022/09/08 02:03:50;;;;;;;;;;;;;;;23.94;52.13;99307.53;4471382;31;33973;-63
2022/09/08 02:06:17;;;;;;;;;;;;;;;24.03;51.76;99311.75;4478638;32;33853;-62
2022/09/08 02:08:49;;;;;;;;;;;;;;;24.05;51.51;99317.00;4479365;31;32944;-62
2022/09/08 02:11:17;;;;;;;;;;;;;;;24.04;51.49;99318.03;4479658;32;33046;-63
2022/09/08 02:13:44;;;;;;;;;;;;;;;24.01;51.61;99310.25;4469164;32;34057;-62
2022/09/08 02:16:12;;;;;;;;;;;;;;;24.00;51.70;99311.31;4480793;32;34133;-63
2022/09/08 02:18:39;;;;;;;;;;;;;;;23.80;52.21;99305.88;4480394;31;33766;-62
2022/09/08 02:21:16;;;;;;;;;;;;;;;23.86;51.76;99308.59;4474177;32;32098;-62
2022/09/08 02:23:44;;;;;;;;;;;;;;;23.77;51.98;99311.75;4482090;31;34941;-62
2022/09/08 02:26:19;;;;;;;;;;;;;;;23.77;52.05;99311.75;4481244;32;33141;-62
2022/09/08 02:28:47;;;;;;;;;;;;;;;23.76;52.31;99310.94;4480545;32;35255;-62
2022/09/08 02:31:14;;;;;;;;;;;;;;;23.74;52.42;99312.19;4478862;31;33633;-62
2022/09/08 02:33:42;;;;;;;;;;;;;;;23.62;52.93;99310.03;4482041;32;34050;-62
2022/09/08 02:36:09;;;;;;;;;;;;;;;23.67;52.66;99314.87;4480940;31;33213;-62
2022/09/08 02:38:37;;;;;;;;;;;;;;;23.67;52.63;99318.47;4480444;32;34285;-63
2022/09/08 02:41:06;;;;;;;;;;;;;;;23.65;52.77;99312.34;4468299;32;33139;-63
2022/09/08 02:43:33;;;;;;;;;;;;;;;23.63;52.80;99316.38;4481903;32;34047;-62
2022/09/08 02:46:05;;;;;;;;;;;;;;;23.56;52.93;99310.03;4480513;31;34149;-62
2022/09/08 02:48:32;;;;;;;;;;;;;;;23.68;52.52;99311.09;4480148;32;35471;-62
2022/09/08 02:51:00;;;;;;;;;;;;;;;23.64;52.43;99307.94;4481102;31;32333;-62
2022/09/08 02:53:28;;;;;;;;;;;;;;;23.73;52.18;99310.50;4482424;32;33857;-61
2022/09/08 02:55:55;;;;;;;;;;;;;;;23.75;52.16;99309.22;4477070;32;33167;-62
2022/09/08 02:58:23;;;;;;;;;;;;;;;23.74;52.18;99310.28;4472603;31;33095;-61
2022/09/08 03:00:50;;;;;;;;;;;;;;;23.74;51.92;99310.28;4466126;32;33551;-61
2022/09/08 03:03:18;;;;;;;;;;;;;;;23.81;51.70;99307.56;4481107;31;34394;-62
2022/09/08 03:05:46;;;;;;;;;;;;;;;23.82;51.64;99299.16;4481617;32;35101;-61
2022/09/08 03:08:13;;;;;;;;;;;;;;;23.83;51.63;99300.84;4475030;32;33143;-62
2022/09/08 03:10:40;;;;;;;;;;;;;;;23.87;51.50;99304.81;4481105;32;34864;-62
2022/09/08 03:13:08;;;;;;;;;;;;;;;23.91;51.33;99303.31;4481121;31;34182;-61
2022/09/08 03:15:36;;;;;;;;;;;;;;;23.89;51.17;99301.88;4482171;32;33113;-60
2022/09/08 03:18:04;;;;;;;;;;;;;;;23.93;51.03;99298.50;4477625;31;33329;-63
2022/09/08 03:20:32;;;;;;;;;;;;;;;23.94;50.99;99291.97;4469521;32;34282;-61
2022/09/08 03:22:59;;;;;;;;;;;;;;;23.92;51.03;99294.09;4482322;32;34121;-61
2022/09/08 03:25:27;;;;;;;;;;;;;;;24.01;50.71;99285.66;4480852;31;34109;-61
2022/09/08 03:27:55;;;;;;;;;;;;;;;24.08;50.49;99281.03;4480008;32;34412;-61
2022/09/08 03:30:22;;;;;;;;;;;;;;;24.07;50.55;99279.34;4481496;31;34398;-62
2022/09/08 03:32:50;;;;;;;;;;;;;;;23.91;51.07;99288.81;4473791;32;33150;-62
2022/09/08 03:35:17;;;;;;;;;;;;;;;24.08;50.38;99287.34;4472797;31;33083;-61
2022/09/08 03:37:45;;;;;;;;;;;;;;;24.11;50.40;99286.09;4480827;32;33118;-61
2022/09/08 03:40:14;;;;;;;;;;;;;;;24.10;50.39;99292.59;4481009;31;31842;-62
2022/09/08 03:42:42;;;;;;;;;;;;;;;24.14;50.13;99299.31;4475489;32;33689;-61
2022/09/08 03:45:10;;;;;;;;;;;;;;;24.11;50.23;99300.59;4481686;31;35507;-61
2022/09/08 03:47:38;;;;;;;;;;;;;;;24.15;50.33;99301.84;4480043;32;35174;-62
2022/09/08 03:50:05;;;;;;;;;;;;;;;24.06;50.76;99310.47;4478289;32;33660;-62
2022/09/08 03:52:33;;;;;;;;;;;;;;;24.08;50.75;99302.91;4476978;31;33356;-61
2022/09/08 03:55:00;;;;;;;;;;;;;;;24.03;50.78;99297.22;4470400;32;37003;-61
2022/09/08 03:57:28;;;;;;;;;;;;;;;23.93;51.22;99309.44;4478301;31;35111;-63
2022/09/08 03:59:56;;;;;;;;;;;;;;;23.90;51.21;99309.03;4477776;32;34684;-62
2022/09/08 04:02:25;;;;;;;;;;;;;;;23.88;51.30;99319.31;4479788;32;34177;-62
2022/09/08 04:04:53;;;;;;;;;;;;;;;23.86;51.50;99313.25;4482190;32;35437;-62
2022/09/08 04:07:21;;;;;;;;;;;;;;;23.74;51.83;99315.75;4482132;32;34242;-62
2022/09/08 04:09:49;;;;;;;;;;;;;;;23.81;51.35;99313.03;4483019;32;33639;-61
2022/09/08 04:12:16;;;;;;;;;;;;;;;23.78;51.19;99321.63;4478415;32;34100;-62
2022/09/08 04:14:45;;;;;;;;;;;;;;;23.72;50.94;99331.50;4479972;32;35105;-62
2022/09/08 04:17:12;;;;;;;;;;;;;;;23.81;50.77;99330.25;4479829;32;34268;-62
2022/09/08 04:19:41;;;;;;;;;;;;;;;23.76;51.00;99330.06;4482885;32;33500;-62
2022/09/08 04:22:14;;;;;;;;;;;;;;;23.75;50.95;99324.78;4479676;32;32918;-62
2022/09/08 04:24:41;;;;;;;;;;;;;;;23.72;50.85;99320.56;4480515;32;34317;-62
2022/09/08 04:27:09;;;;;;;;;;;;;;;23.62;51.01;99315.50;4481763;32;32924;-63
2022/09/08 04:29:36;;;;;;;;;;;;;;;23.68;50.85;99311.09;4480633;32;33611;-62
2022/09/08 04:32:04;;;;;;;;;;;;;;;23.67;50.90;99310.25;4486066;32;32667;-62
2022/09/08 04:34:31;;;;;;;;;;;;;;;23.72;50.79;99306.91;4475598;32;35784;-62
2022/09/08 04:36:58;;;;;;;;;;;;;;;23.77;50.75;99307.13;4484848;32;34203;-62
2022/09/08 04:39:26;;;;;;;;;;;;;;;23.73;50.68;99310.50;4484451;32;33403;-61
2022/09/08 04:41:54;;;;;;;;;;;;;;;23.82;50.38;99315.56;4485777;32;34294;-61
2022/09/08 04:44:22;;;;;;;;;;;;;;;23.89;50.24;99321.84;4483149;32;33775;-61
2022/09/08 04:46:49;;;;;;;;;;;;;;;23.99;50.08;99312.38;4484159;32;34435;-61
2022/09/08 04:49:16;;;;;;;;;;;;;;;23.94;50.32;99313.84;4480325;32;33282;-62
2022/09/08 04:51:44;;;;;;;;;;;;;;;23.99;50.22;99318.69;4484509;32;35193;-62
2022/09/08 04:54:11;;;;;;;;;;;;;;;23.79;50.45;99320.56;4482573;32;34237;-63
2022/09/08 04:56:38;;;;;;;;;;;;;;;24.05;49.99;99326.03;4483963;32;34162;-61
2022/09/08 04:59:06;;;;;;;;;;;;;;;23.93;50.22;99319.53;4482280;32;32135;-63
2022/09/08 05:01:35;;;;;;;;;;;;;;;23.99;49.87;99317.84;4484680;32;35047;-64
2022/09/08 05:04:02;;;;;;;;;;;;;;;24.02;50.00;99318.25;4480732;32;35264;-64
2022/09/08 05:06:31;;;;;;;;;;;;;;;24.05;50.13;99314.28;4475038;32;34957;-65
2022/09/08 05:08:58;;;;;;;;;;;;;;;24.10;50.27;99317.19;4484696;32;33613;-61
2022/09/08 05:11:26;;;;;;;;;;;;;;;24.06;50.17;99326.88;4480353;32;34056;-61
2022/09/08 05:13:54;;;;;;;;;;;;;;;24.19;49.97;99332.31;4482162;32;32966;-61
2022/09/08 05:16:24;;;;;;;;;;;;;;;24.44;49.33;99326.22;4479293;32;34964;-61
2022/09/08 05:18:53;;;;;;;;;;;;;;;24.48;49.30;99327.44;4478007;32;34709;-64
2022/09/08 05:21:20;;;;;;;;;;;;;;;24.24;49.62;99329.81;4480316;32;34213;-62
2022/09/08 05:23:49;;;;;;;;;;;;;;;24.39;49.33;99327.63;4480113;32;34118;-61
2022/09/08 05:26:17;;;;;;;;;;;;;;;24.31;49.72;99321.59;4482128;32;34288;-61
2022/09/08 05:28:44;;;;;;;;;;;;;;;24.12;49.96;99328.78;4484556;32;33418;-61
2022/09/08 05:31:14;;;;;;;;;;;;;;;24.14;50.10;99327.50;4476421;32;34197;-61
2022/09/08 05:33:41;;;;;;;;;;;;;;;24.14;50.30;99330.25;4480235;32;35515;-61
2022/09/08 05:36:13;;;;;;;;;;;;;;;23.92;50.94;99318.69;4481235;32;33005;-62
2022/09/08 05:38:40;;;;;;;;;;;;;;;23.86;51.24;99318.72;4475841;32;33424;-61
2022/09/08 05:41:09;;;;;;;;;;;;;;;24.02;51.13;99337.41;4481888;32;32635;-62
2022/09/08 05:43:37;;;;;;;;;;;;;;;23.88;51.10;99332.97;4481709;32;35191;-61
2022/09/08 05:46:05;;;;;;;;;;;;;;;23.91;50.76;99330.66;4479051;32;34480;-63
2022/09/08 05:48:32;;;;;;;;;;;;;;;23.87;50.99;99323.94;4472525;32;33584;-64
2022/09/08 05:50:59;;;;;;;;;;;;;;;23.84;50.85;99318.91;4476089;32;32563;-61
2022/09/08 05:53:27;;;;;;;;;;;;;;;23.44;52.00;99323.50;4480911;32;35467;-61
2022/09/08 05:55:56;;;;;;;;;;;;;;;23.82;51.33;99318.28;4474571;32;34407;-61
2022/09/08 05:58:23;;;;;;;;;;;;;;;23.83;51.65;99316.38;4484917;32;33334;-61
2022/09/08 06:00:57;;;;;;;;;;;;;;;23.36;52.07;99316.31;4480964;32;33738;-62
2022/09/08 06:03:25;;;;;;;;;;;;;;;23.36;52.36;99315.47;4481660;32;33026;-61
2022/09/08 06:05:54;;;;;;;;;;;;;;;22.98;53.40;99322.31;4481919;32;34381;-61
2022/09/08 06:08:22;;;;;;;;;;;;;;;23.00;52.35;99319.41;4484883;32;34723;-61
2022/09/08 06:10:50;;;;;;;;;;;;;;;23.09;52.90;99314.59;4481011;32;33815;-61
2022/09/08 06:13:17;;;;;;;;;;;;;;;22.97;52.67;99311.62;4484018;32;34362;-61
2022/09/08 06:15:44;;;;;;;;;;;;;;;23.31;52.22;99307.09;4480049;32;34437;-62
2022/09/08 06:18:12;;;;;;;;;;;;;;;23.11;52.25;99317.94;4481412;32;34380;-62
2022/09/08 06:20:39;;;;;;;;;;;;;;;23.40;51.95;99312.16;4472740;32;33645;-61
2022/09/08 06:23:07;;;;;;;;;;;;;;;23.24;51.56;99316.13;4466816;32;34499;-62
2022/09/08 06:25:38;;;;;;;;;;;;;;;23.63;51.18;99310.91;4484821;32;35064;-62
2022/09/08 06:28:35;;;;;;;;;;;;;;;23.54;50.93;99317.63;4483858;32;34287;-62
2022/09/08 06:31:05;;;;;;;;;;;;;;;23.66;51.09;99302.28;4467581;31;35135;-62
2022/09/08 06:33:33;;;;;;;;;;;;;;;23.86;50.12;99294.94;4475913;32;35167;-62
2022/09/08 06:36:11;;;;;;;;;;;;;;;23.19;51.48;99301.41;4475546;32;36367;-62
2022/09/08 06:38:41;;;;;;;;;;;;;;;23.19;51.42;99301.41;4476934;32;33734;-62
2022/09/08 06:41:11;;;;;;;;;;;;;;;23.10;51.71;99297.16;4475557;32;34443;-62
2022/09/08 06:43:45;;;;;;;;;;;;;;;23.35;51.62;99289.25;4484073;32;35462;-62
2022/09/08 06:46:35;;;;;;;;;;;;;;;23.56;50.93;99288.19;4480531;32;34278;-62
2022/09/08 06:49:03;;;;;;;;;;;;;;;23.58;50.48;99291.56;4471940;31;32149;-63
2022/09/08 06:51:46;;;;;;;;;;;;;;;23.19;52.04;99290.47;4481146;31;32996;-62
2022/09/08 06:54:27;;;;;;;;;;;;;;;23.44;51.60;99282.53;4469128;32;34195;-62
2022/09/08 06:57:13;;;;;;;;;;;;;;;23.48;52.02;99281.06;4483073;32;35529;-62
2022/09/08 06:59:55;;;;;;;;;;;;;;;23.42;51.34;99271.78;4473911;32;32156;-62
2022/09/08 07:02:23;;;;;;;;;;;;;;;23.30;51.10;99261.72;4483106;32;33100;-62
2022/09/08 07:04:52;;;;;;;;;;;;;;;23.35;51.51;99260.03;4479996;32;35230;-63
2022/09/08 07:07:22;;;;;;;;;;;;;;;22.99;52.48;99272.16;4481171;32;34240;-62
2022/09/08 07:10:08;;;;;;;;;;;;;;;23.09;52.13;99273.66;4474807;32;33589;-62
2022/09/08 07:12:36;;;;;;;;;;;;;;;23.29;51.42;99263.59;4484483;32;35249;-61
2022/09/08 07:15:11;;;;;;;;;;;;;;;23.04;52.29;99262.50;4483194;32;35264;-62
2022/09/08 07:17:46;;;;;;;;;;;;;;;23.55;51.57;99267.41;4483381;32;33103;-62
2022/09/08 07:20:14;;;;;;;;;;;;;;;23.32;52.20;99265.91;4475617;32;33907;-61
2022/09/08 07:22:43;;;;;;;;;;;;;;;23.25;52.21;99260.44;4480719;32;34365;-62
2022/09/08 07:25:22;;;;;;;;;;;;;;;23.44;51.83;99261.50;4482446;32;34707;-62
2022/09/08 07:28:11;;;;;;;;;;;;;;;22.63;54.30;99271.59;4480847;32;34194;-62
2022/09/08 07:30:39;;;;;;;;;;;;;;;23.27;52.75;99262.97;4478289;32;33153;-62
2022/09/08 07:33:18;;;;;;;;;;;;;;;23.41;51.66;99263.81;4480737;32;34124;-62
2022/09/08 07:36:03;;;;;;;;;;;;;;;23.12;52.64;99268.63;4482371;32;32945;-62
2022/09/08 07:38:36;;;;;;;;;;;;;;;23.22;52.50;99274.50;4479661;32;34662;-62
2022/09/08 07:41:05;;;;;;;;;;;;;;;23.74;51.67;99279.41;4482248;32;33692;-62
2022/09/08 07:43:33;;;;;;;;;;;;;;;23.89;51.31;99274.56;4480464;32;34176;-62
2022/09/08 07:46:00;;;;;;;;;;;;;;;23.68;51.77;99275.56;4476164;32;35489;-62
2022/09/08 07:48:39;;;;;;;;;;;;;;;23.24;52.42;99285.22;4479419;32;34027;-62
2022/09/08 07:51:11;;;;;;;;;;;;;;;23.67;52.27;99288.41;4479170;32;34449;-62
2022/09/08 07:53:41;;;;;;;;;;;;;;;24.26;51.06;99283.91;4475943;32;33921;-62
2022/09/08 07:56:16;;;;;;;;;;;;;;;24.21;50.88;99278.28;4478592;32;33903;-62
2022/09/08 07:59:01;;;;;;;;;;;;;;;24.45;50.21;99287.69;4474311;32;35123;-63
2022/09/08 08:01:41;;;;;;;;;;;;;;;24.17;50.23;99293.41;4463935;32;33516;-62
2022/09/08 08:04:12;;;;;;;;;;;;;;;24.73;49.78;99297.47;4479590;32;35295;-62
2022/09/08 08:06:44;;;;;;;;;;;;;;;24.49;50.38;99299.03;4484219;32;32840;-62
2022/09/08 08:09:19;;;;;;;;;;;;;;;24.55;50.08;99298.16;4471997;32;34113;-62
2022/09/08 08:12:06;;;;;;;;;;;;;;;24.43;50.59;99295.28;4483626;32;32629;-62
2022/09/08 08:14:52;;;;;;;;;;;;;;;24.71;50.18;99308.63;4471288;32;35076;-62
2022/09/08 08:17:36;;;;;;;;;;;;;;;24.78;50.41;99303.12;4476056;32;35022;-62
2022/09/08 08:20:23;;;;;;;;;;;;;;;25.07;49.22;99304.44;4482073;31;34293;-62
2022/09/08 08:22:56;;;;;;;;;;;;;;;25.19;49.19;99302.72;4478535;32;33474;-62
2022/09/08 08:25:28;;;;;;;;;;;;;;;24.96;49.94;99310.62;4484588;32;33835;-62
2022/09/08 08:28:10;;;;;;;;;;;;;;;25.13;49.52;99303.59;4483016;32;33950;-62
2022/09/08 08:31:00;;;;;;;;;;;;;;;24.74;50.84;99310.09;4474690;32;34614;-62
2022/09/08 08:33:29;;;;;;;;;;;;;;;25.50;49.10;99314.75;4481599;32;32240;-62
2022/09/08 08:35:57;;;;;;;;;;;;;;;25.26;49.63;99310.91;4473420;32;34971;-62
2022/09/08 08:38:52;;;;;;;;;;;;;;;25.93;48.80;99314.00;4482173;32;35066;-62
2022/09/08 08:41:27;;;;;;;;;;;;;;;26.05;48.01;99309.44;4482007;32;34444;-62
2022/09/08 08:44:19;;;;;;;;;;;;;;;26.09;48.08;99312.56;4471548;32;32159;-62
2022/09/08 08:46:50;;;;;;;;;;;;;;;25.76;48.53;99311.78;4483702;32;34591;-63
2022/09/08 08:49:23;;;;;;;;;;;;;;;26.02;48.68;99305.25;4480734;32;33483;-63
2022/09/08 08:51:54;;;;;;;;;;;;;;;26.27;48.68;99304.38;4476650;32;34142;-62
2022/09/08 08:54:28;;;;;;;;;;;;;;;26.48;48.42;99306.72;4482420;32;33561;-62
2022/09/08 08:57:14;;;;;;;;;;;;;;;26.67;47.13;99304.78;4472299;32;32594;-62
2022/09/08 09:00:00;;;;;;;;;;;;;;;26.72;46.60;99295.88;4484043;32;35555;-62
2022/09/08 09:02:34;;;;;;;;;;;;;;;26.55;47.82;99297.53;4480108;32;32758;-64
2022/09/08 09:05:18;;;;;;;;;;;;;;;26.82;46.90;99293.41;4482131;32;32539;-63
2022/09/08 09:07:55;;;;;;;;;;;;;;;27.03;45.43;99288.47;4467778;32;34263;-62
2022/09/08 09:10:32;;;;;;;;;;;;;;;27.21;46.69;99276.63;4469615;32;35070;-62
2022/09/08 09:13:08;;;;;;;;;;;;;;;27.67;45.19;99264.88;4470891;32;34956;-62
2022/09/08 09:15:42;;;;;;;;;;;;;;;27.58;44.70;99264.41;4477730;32;33680;-62
2022/09/08 09:18:29;;;;;;;;;;;;;;;27.64;44.97;99262.63;4469670;32;34124;-62
2022/09/08 09:20:57;;;;;;;;;;;;;;;27.68;45.58;99254.75;4474764;32;33779;-62
2022/09/08 09:23:43;;;;;;;;;;;;;;;27.91;43.91;99264.94;4479870;32;33027;-63
2022/09/08 09:26:18;;;;;;;;;;;;;;;27.73;44.19;99255.69;4482432;32;34310;-62
2022/09/08 09:29:04;;;;;;;;;;;;;;;27.89;44.76;99254.16;4480691;32;32946;-62
2022/09/08 09:31:43;;;;;;;;;;;;;;;27.67;45.05;99253.87;4470258;32;34022;-63
2022/09/08 09:34:30;;;;;;;;;;;;;;;27.82;45.30;99247.97;4478588;32;33951;-63
2022/09/08 09:37:08;;;;;;;;;;;;;;;27.89;44.81;99243.16;4469765;32;33451;-63
2022/09/08 09:39:36;;;;;;;;;;;;;;;27.65;45.33;99245.06;4483287;32;34324;-63
2022/09/08 09:42:08;;;;;;;;;;;;;;;27.43;46.04;99233.78;4481425;32;34593;-63
2022/09/08 09:44:36;;;;;;;;;;;;;;;27.41;45.38;99230.44;4472027;32;33040;-62
2022/09/08 09:47:09;;;;;;;;;;;;;;;27.52;45.27;99232.38;4475327;32;33006;-62
2022/09/08 09:49:52;;;;;;;;;;;;;;;27.73;45.61;99227.34;4485086;32;34183;-62
2022/09/08 09:52:21;;;;;;;;;;;;;;;27.98;44.68;99236.22;4480514;32;35065;-63
2022/09/08 09:55:01;;;;;;;;;;;;;;;27.76;45.38;99235.97;4479864;32;34305;-63
2022/09/08 09:57:29;;;;;;;;;;;;;;;28.16;44.24;99235.25;4476042;32;33507;-63
2022/09/08 10:00:11;;;;;;;;;;;;;;;28.00;45.26;99238.75;4478800;32;33193;-63
2022/09/08 10:02:38;;;;;;;;;;;;;;;27.91;45.35;99240.19;4482506;32;32853;-63
2022/09/08 10:05:08;;;;;;;;;;;;;;;28.69;43.46;99234.19;4483829;32;35279;-62
2022/09/08 10:07:54;;;;;;;;;;;;;;;28.60;43.77;99235.62;4477440;32;32527;-63
2022/09/08 10:10:34;;;;;;;;;;;;;;;28.13;44.44;99234.91;4476379;32;34177;-63
2022/09/08 10:13:07;;;;;;;;;;;;;;;29.06;42.45;99236.56;4467922;32;32720;-63
2022/09/08 10:15:37;;;;;;;;;;;;;;;28.90;42.82;99231.84;4467366;32;33093;-62
2022/09/08 10:18:10;;;;;;;;;;;;;;;29.13;42.65;99231.72;4474996;32;32441;-63
2022/09/08 10:20:50;;;;;;;;;;;;;;;28.88;43.66;99221.03;4475307;32;34939;-64
2022/09/08 10:23:36;;;;;;;;;;;;;;;28.88;42.90;99215.53;4483266;32;34141;-63
2022/09/08 10:26:09;;;;;;;;;;;;;;;28.74;43.83;99205.91;4483945;32;33071;-63
2022/09/08 10:28:46;;;;;;;;;;;;;;;29.24;42.88;99202.41;4478534;32;33325;-63
2022/09/08 10:31:20;;;;;;;;;;;;;;;29.37;42.46;99198.50;4482399;32;34299;-64
2022/09/08 10:33:48;;;;;;;;;;;;;;;29.48;43.23;99198.41;4469050;32;35843;-64
2022/09/08 10:36:16;;;;;;;;;;;;;;;29.93;42.51;99199.41;4476315;32;35878;-63
2022/09/08 10:39:00;;;;;;;;;;;;;;;29.54;42.38;99202.09;4480957;32;33381;-64
2022/09/08 10:41:33;;;;;;;;;;;;;;;29.79;41.61;99203.59;4481347;32;34143;-63
2022/09/08 10:44:01;;;;;;;;;;;;;;;29.85;41.32;99211.69;4478679;32;34283;-63
2022/09/08 10:46:28;;;;;;;;;;;;;;;30.03;41.47;99215.25;4484721;32;33985;-63
2022/09/08 10:49:11;;;;;;;;;;;;;;;29.82;41.71;99205.84;4475634;32;34695;-62
2022/09/08 10:51:39;;;;;;;;;;;;;;;30.27;40.98;99197.38;4482377;32;35228;-62
2022/09/08 10:54:15;;;;;;;;;;;;;;;30.35;40.71;99201.63;4479496;32;33020;-62
2022/09/08 10:56:43;;;;;;;;;;;;;;;30.33;41.39;99193.59;4482594;32;34098;-62
2022/09/08 10:59:29;;;;;;;;;;;;;;;30.45;41.11;99201.75;4470106;32;32389;-62
2022/09/08 11:02:33;;;;;;;;;;;;;;;30.58;39.82;99193.06;4479589;32;33890;-62
2022/09/08 11:05:18;;;;;;;;;;;;;;;30.86;39.46;99199.47;4478298;32;34230;-62
2022/09/08 11:08:15;;;;;;;;;;;;;;;30.49;40.07;99193.78;4480920;32;34204;-63
2022/09/08 11:10:42;;;;;;;;;;;;;;;30.81;40.27;99186.44;4428592;32;33033;-62
2022/09/08 11:13:29;;;;;;;;;;;;;;;30.96;39.23;99193.22;4476696;32;33001;-62
2022/09/08 11:15:56;;;;;;;;;;;;;;;30.90;39.30;99197.84;4478090;32;33040;-62
2022/09/08 11:18:41;;;;;;;;;;;;;;;30.76;37.51;99193.81;4476392;32;34665;-62
2022/09/08 11:21:26;;;;;;;;;;;;;;;30.67;38.09;99196.22;4477511;32;32422;-62
2022/09/08 11:23:59;;;;;;;;;;;;;;;31.11;36.81;99190.59;4471663;32;33888;-63
2022/09/08 11:26:42;;;;;;;;;;;;;;;31.00;37.58;99197.12;4482783;32;34327;-62
2022/09/08 11:29:12;;;;;;;;;;;;;;;30.85;36.79;99190.38;4482618;32;35347;-62
2022/09/08 11:31:45;;;;;;;;;;;;;;;30.53;37.33;99189.41;4472209;32;33268;-61
2022/09/08 11:34:30;;;;;;;;;;;;;;;30.68;37.10;99197.03;4481562;32;34291;-64
2022/09/08 11:37:05;;;;;;;;;;;;;;;31.30;35.74;99191.88;4473341;32;34068;-61
2022/09/08 11:39:55;;;;;;;;;;;;;;;31.13;36.09;99199.44;4476092;32;33085;-62
2022/09/08 11:42:45;;;;;;;;;;;;;;;31.25;36.50;99191.00;4457237;32;31947;-62
2022/09/08 11:45:32;;;;;;;;;;;;;;;30.62;36.73;99182.34;4478274;31;34500;-62
2022/09/08 11:47:59;;;;;;;;;;;;;;;31.30;36.74;99189.12;4470926;32;33387;-61
2022/09/08 11:50:27;;;;;;;;;;;;;;;30.97;36.81;99194.88;4467512;32;34177;-61
2022/09/08 11:53:11;;;;;;;;;;;;;;;30.93;36.49;99189.06;4478799;32;33889;-61
2022/09/08 11:56:01;;;;;;;;;;;;;;;30.93;35.81;99186.28;4471675;32;35318;-61
2022/09/08 11:58:30;;;;;;;;;;;;;;;31.01;36.42;99179.44;4480945;32;33849;-62
2022/09/08 12:01:01;;;;;;;;;;;;;;;31.39;35.76;99174.81;4468495;32;34079;-62
2022/09/08 12:03:40;;;;;;;;;;;;;;;31.14;35.61;99189.22;4482086;32;33357;-62
2022/09/08 12:06:27;;;;;;;;;;;;;;;31.09;36.65;99187.25;4481338;31;33604;-62
2022/09/08 12:09:06;;;;;;;;;;;;;;;31.59;35.30;99180.53;4475252;32;35864;-63
2022/09/08 12:11:54;;;;;;;;;;;;;;;31.10;36.55;99178.69;4469330;32;33915;-63
2022/09/08 12:14:24;;;;;;;;;;;;;;;30.98;35.86;99168.91;4478099;32;33672;-64
2022/09/08 12:17:13;;;;;;;;;;;;;;;31.01;36.34;99173.91;4480092;31;34823;-64
2022/09/08 12:19:50;;;;;;;;;;;;;;;30.98;35.96;99166.16;4466200;32;34521;-65
2022/09/08 12:22:20;;;;;;;;;;;;;;;31.46;35.23;99153.28;4475485;31;35275;-63
2022/09/08 12:25:00;;;;;;;;;;;;;;;31.54;35.26;99161.94;4464813;32;31981;-64
2022/09/08 12:27:50;;;;;;;;;;;;;;;31.40;35.35;99148.84;4475059;31;34174;-64
2022/09/08 12:30:19;;;;;;;;;;;;;;;30.76;36.35;99150.47;4480201;32;34166;-64
2022/09/08 12:33:05;;;;;;;;;;;;;;;31.05;36.16;99155.72;4472986;32;34541;-64
2022/09/08 12:35:53;;;;;;;;;;;;;;;30.78;36.95;99152.97;4482772;32;32153;-64
2022/09/08 12:38:21;;;;;;;;;;;;;;;30.89;36.50;99154.75;4477085;31;32948;-63
2022/09/08 12:40:57;;;;;;;;;;;;;;;31.70;35.29;99146.28;4469274;32;33127;-64
2022/09/08 12:43:25;;;;;;;;;;;;;;;31.52;35.36;99146.69;4465169;32;34337;-63
2022/09/08 12:45:59;;;;;;;;;;;;;;;31.47;34.82;99139.22;4468169;32;31980;-64
2022/09/08 12:48:32;;;;;;;;;;;;;;;31.41;35.14;99132.00;4478134;31;34900;-64
2022/09/08 12:51:13;;;;;;;;;;;;;;;31.57;35.42;99127.38;4476947;32;34177;-64
2022/09/08 12:54:09;;;;;;;;;;;;;;;31.43;35.56;99126.19;4470767;32;34228;-64
2022/09/08 12:56:46;;;;;;;;;;;;;;;31.28;36.19;99122.19;4427257;32;33218;-64
2022/09/08 12:59:14;;;;;;;;;;;;;;;30.94;35.58;99118.88;4465530;32;33660;-64
2022/09/08 13:01:54;;;;;;;;;;;;;;;31.36;35.47;99114.53;4474640;32;33647;-64
2022/09/08 13:04:25;;;;;;;;;;;;;;;31.50;35.10;99118.50;4476457;31;34129;-64
2022/09/08 13:06:52;;;;;;;;;;;;;;;31.46;35.05;99109.06;4474349;32;34341;-65
2022/09/08 13:09:23;;;;;;;;;;;;;;;31.14;34.35;99117.37;4479277;32;34340;-64
2022/09/08 13:11:58;;;;;;;;;;;;;;;30.51;35.33;99119.81;4480700;32;34594;-64
2022/09/08 13:14:52;;;;;;;;;;;;;;;30.62;35.03;99111.34;4479353;32;34362;-64
2022/09/08 13:17:25;;;;;;;;;;;;;;;31.08;34.31;99105.47;4452166;32;33574;-64
2022/09/08 13:20:05;;;;;;;;;;;;;;;30.86;34.67;99106.38;4463537;32;33175;-64
2022/09/08 13:22:36;;;;;;;;;;;;;;;30.91;35.08;99101.97;4477751;31;35130;-64